Time;durP1;ratioP1;P1;durP2;ratioP2;P2;SDS_P1;SDS_P2;PMS_P1;PMS_P2;Temp;Humidity;BMP_temperature;BMP_pressure;BME280_temperature;BME280_humidity;BME280_pressure;Samples;Min_cycle;Max_cycle;Signal;HPM_P1;HPM_P2
2024/02/08 00:01:36;;;;;;;9.85;5.80;;;;;;;;;;10251879;28;20049;-65
2024/02/08 00:06:34;;;;;;;10.68;6.57;;;;;;;;;;10253821;28;20510;-66
2024/02/08 00:11:33;;;;;;;6.88;5.72;;;;;;;;;;10252121;28;20506;-66
2024/02/08 00:16:32;;;;;;;8.45;6.05;;;;;;;;;;10254045;28;20088;-66
2024/02/08 00:21:32;;;;;;;6.65;4.70;;;;;;;;;;10251064;28;20088;-67
2024/02/08 00:26:30;;;;;;;7.13;5.30;;;;;;;;;;10253256;28;20064;-66
2024/02/08 00:31:28;;;;;;;6.47;4.75;;;;;;;;;;10254440;28;20076;-66
2024/02/08 00:36:28;;;;;;;6.50;5.15;;;;;;;;;;10252622;28;20115;-66
2024/02/08 00:41:26;;;;;;;5.97;5.10;;;;;;;;;;10250649;28;20073;-67
2024/02/08 00:46:25;;;;;;;8.15;5.50;;;;;;;;;;10253600;28;20080;-66
2024/02/08 00:51:23;;;;;;;7.88;5.45;;;;;;;;;;10253839;28;20085;-66
2024/02/08 00:56:22;;;;;;;8.85;5.80;;;;;;;;;;10253354;28;20068;-66
2024/02/08 01:01:21;;;;;;;6.38;4.97;;;;;;;;;;10252745;28;20514;-66
2024/02/08 01:06:19;;;;;;;6.07;5.15;;;;;;;;;;10253316;28;20067;-67
2024/02/08 01:11:18;;;;;;;11.27;5.18;;;;;;;;;;10255947;28;20489;-67
2024/02/08 01:16:17;;;;;;;7.47;4.80;;;;;;;;;;10255212;28;20077;-67
2024/02/08 01:21:16;;;;;;;10.93;5.30;;;;;;;;;;10252415;28;20064;-67
2024/02/08 01:26:15;;;;;;;6.97;5.78;;;;;;;;;;10252957;28;20065;-65
2024/02/08 01:31:14;;;;;;;6.45;4.78;;;;;;;;;;10259679;28;20087;-66
2024/02/08 01:36:15;;;;;;;8.35;5.47;;;;;;;;;;10261327;28;20489;-66
2024/02/08 01:41:14;;;;;;;6.90;5.55;;;;;;;;;;10259582;28;20069;-66
2024/02/08 01:46:15;;;;;;;9.63;5.43;;;;;;;;;;10262625;28;20131;-66
2024/02/08 01:51:16;;;;;;;7.35;5.68;;;;;;;;;;10262506;28;20532;-66
2024/02/08 01:56:15;;;;;;;5.22;4.72;;;;;;;;;;10259703;28;20080;-66
2024/02/08 02:01:14;;;;;;;7.50;5.30;;;;;;;;;;10272154;28;20080;-66
2024/02/08 02:06:14;;;;;;;5.68;4.75;;;;;;;;;;10264084;28;20499;-67
2024/02/08 02:11:18;;;;;;;7.25;5.10;;;;;;;;;;10259566;28;20560;-66
2024/02/08 02:16:17;;;;;;;6.77;5.47;;;;;;;;;;10259292;28;20057;-66
2024/02/08 02:21:19;;;;;;;5.30;4.80;;;;;;;;;;10259940;28;20056;-65
2024/02/08 02:26:18;;;;;;;6.78;5.50;;;;;;;;;;10260850;28;20084;-67
2024/02/08 02:31:17;;;;;;;6.07;4.70;;;;;;;;;;10262353;28;20072;-66
2024/02/08 02:36:15;;;;;;;15.85;6.50;;;;;;;;;;10259416;28;20061;-67
2024/02/08 02:41:15;;;;;;;8.82;4.60;;;;;;;;;;10258003;28;20180;-66
2024/02/08 02:46:13;;;;;;;8.50;6.22;;;;;;;;;;10257301;28;20518;-67
2024/02/08 02:51:11;;;;;;;7.20;5.43;;;;;;;;;;10259323;28;20072;-67
2024/02/08 02:56:11;;;;;;;9.00;4.95;;;;;;;;;;10258867;28;20107;-66
2024/02/08 03:01:12;;;;;;;7.15;5.57;;;;;;;;;;10259160;28;20478;-66
2024/02/08 03:06:14;;;;;;;5.90;4.57;;;;;;;;;;10260501;28;20073;-66
2024/02/08 03:11:16;;;;;;;6.50;4.55;;;;;;;;;;10258394;28;20068;-67
2024/02/08 03:16:16;;;;;;;4.50;4.07;;;;;;;;;;10258072;28;20072;-66
2024/02/08 03:21:17;;;;;;;9.48;4.72;;;;;;;;;;10256418;28;20068;-66
2024/02/08 03:26:17;;;;;;;6.07;5.40;;;;;;;;;;10257514;28;20064;-66
2024/02/08 03:31:17;;;;;;;10.15;6.00;;;;;;;;;;10257209;28;20099;-66
2024/02/08 03:36:16;;;;;;;10.05;5.45;;;;;;;;;;10255228;28;20072;-67
2024/02/08 03:41:14;;;;;;;6.28;5.30;;;;;;;;;;10256913;28;20248;-66
2024/02/08 03:46:12;;;;;;;6.97;5.25;;;;;;;;;;10257228;28;20080;-67
2024/02/08 03:51:12;;;;;;;7.20;5.63;;;;;;;;;;10255820;28;20077;-67
2024/02/08 03:56:11;;;;;;;6.88;4.85;;;;;;;;;;10252199;28;20074;-65
2024/02/08 04:01:10;;;;;;;7.65;5.15;;;;;;;;;;10256052;28;20073;-67
2024/02/08 04:06:26;;;;;;;7.15;5.10;;;;;;;;;;10254488;28;20073;-65
2024/02/08 04:53:38;;;;;;;13.18;11.82;;;;;;;;;;10255762;28;20084;-66
2024/02/08 04:58:40;;;;;;;9.45;7.53;;;;;;;;;;10248007;28;20073;-67
2024/02/08 05:03:59;;;;;;;7.55;6.05;;;;;;;;;;10253306;28;20068;-66
2024/02/08 05:08:59;;;;;;;7.35;5.70;;;;;;;;;;10253522;28;20528;-66
2024/02/08 05:14:01;;;;;;;6.07;5.47;;;;;;;;;;10254224;28;20569;-67
2024/02/08 05:19:00;;;;;;;7.50;5.13;;;;;;;;;;10251087;28;20065;-64
2024/02/08 05:23:58;;;;;;;11.25;7.80;;;;;;;;;;10255195;28;20088;-65
2024/02/08 05:28:57;;;;;;;8.18;5.32;;;;;;;;;;10251695;28;20064;-65
2024/02/08 05:33:57;;;;;;;6.55;5.30;;;;;;;;;;10251960;28;20072;-66
2024/02/08 05:38:56;;;;;;;7.13;5.28;;;;;;;;;;10253255;28;20069;-66
2024/02/08 05:43:55;;;;;;;11.02;6.45;;;;;;;;;;10254898;28;20095;-66
2024/02/08 05:49:04;;;;;;;10.50;8.70;;;;;;;;;;10256784;28;20072;-67
2024/02/08 05:54:05;;;;;;;13.73;12.40;;;;;;;;;;10239875;28;20125;-66
2024/02/08 05:59:05;;;;;;;12.65;6.20;;;;;;;;;;10249993;28;20069;-66
2024/02/08 06:04:04;;;;;;;5.07;4.28;;;;;;;;;;10247697;28;20072;-67
2024/02/08 06:09:08;;;;;;;9.98;5.28;;;;;;;;;;10246304;28;20061;-66
2024/02/08 06:14:12;;;;;;;8.50;5.80;;;;;;;;;;10260264;28;20072;-66
2024/02/08 06:19:14;;;;;;;6.45;5.72;;;;;;;;;;10260303;28;20068;-65
2024/02/08 06:29:38;;;;;;;5.97;4.93;;;;;;;;;;10264593;28;20073;-65
2024/02/08 06:34:45;;;;;;;7.03;5.50;;;;;;;;;;10258139;28;20077;-66
2024/02/08 06:39:55;;;;;;;7.28;5.65;;;;;;;;;;10255178;28;20080;-65
2024/02/08 06:45:24;;;;;;;6.90;5.75;;;;;;;;;;10258458;28;20069;-65
2024/02/08 07:37:38;;;;;;;7.63;5.32;;;;;;;;;;10256034;28;20495;-67
2024/02/08 07:42:41;;;;;;;10.48;6.10;;;;;;;;;;10259343;28;20069;-65
2024/02/08 07:47:57;;;;;;;7.97;5.63;;;;;;;;;;10257617;28;20072;-65
2024/02/08 07:52:58;;;;;;;11.15;6.53;;;;;;;;;;10250568;28;20068;-66
2024/02/08 07:57:59;;;;;;;8.57;5.45;;;;;;;;;;10253887;28;20511;-67
2024/02/08 08:02:59;;;;;;;8.65;5.40;;;;;;;;;;10253057;28;20084;-67
2024/02/08 08:08:01;;;;;;;7.50;5.97;;;;;;;;;;10255408;28;20075;-66
2024/02/08 08:13:06;;;;;;;14.57;7.43;;;;;;;;;;10253127;28;20088;-66
2024/02/08 08:18:23;;;;;;;9.38;6.47;;;;;;;;;;10256506;28;20077;-66
2024/02/08 08:23:26;;;;;;;6.80;4.90;;;;;;;;;;10256685;28;20099;-65
2024/02/08 08:28:51;;;;;;;11.15;6.70;;;;;;;;;;10255353;28;20069;-65
2024/02/08 08:35:18;;;;;;;7.80;6.00;;;;;;;;;;10259794;28;20091;-65
2024/02/08 08:44:37;;;;;;;5.88;5.25;;;;;;;;;;10253512;28;20168;-67
2024/02/08 08:49:39;;;;;;;8.80;6.18;;;;;;;;;;10255667;28;20088;-66
2024/02/08 08:54:42;;;;;;;11.55;5.95;;;;;;;;;;10251676;28;20081;-67
2024/02/08 08:59:42;;;;;;;9.07;5.68;;;;;;;;;;10246180;28;20065;-66
2024/02/08 09:04:42;;;;;;;11.25;6.65;;;;;;;;;;10255392;28;20072;-63
2024/02/08 09:10:00;;;;;;;8.38;5.40;;;;;;;;;;10254523;28;20072;-66
2024/02/08 09:15:19;;;;;;;9.55;5.53;;;;;;;;;;10252735;28;20069;-65
2024/02/08 09:20:25;;;;;;;8.65;6.28;;;;;;;;;;10255876;28;20076;-66
2024/02/08 09:25:24;;;;;;;9.55;5.53;;;;;;;;;;10255871;28;20080;-66
2024/02/08 09:30:39;;;;;;;9.82;6.35;;;;;;;;;;10254122;28;20083;-65
2024/02/08 09:35:41;;;;;;;8.80;5.05;;;;;;;;;;10255524;28;20068;-65
2024/02/08 09:40:45;;;;;;;9.50;5.88;;;;;;;;;;10254397;28;20069;-66
2024/02/08 09:45:44;;;;;;;7.13;5.03;;;;;;;;;;10257189;28;20141;-66
2024/02/08 09:50:47;;;;;;;6.95;4.85;;;;;;;;;;10261598;28;20060;-69
2024/02/08 09:55:49;;;;;;;8.80;4.93;;;;;;;;;;10261187;28;20080;-64
2024/02/08 10:00:57;;;;;;;8.90;4.78;;;;;;;;;;10262045;28;20779;-65
2024/02/08 10:05:58;;;;;;;5.78;3.80;;;;;;;;;;10259458;28;20080;-66
2024/02/08 10:11:23;;;;;;;7.72;4.22;;;;;;;;;;10255361;28;20084;-65
2024/02/08 10:16:30;;;;;;;4.35;3.47;;;;;;;;;;10249039;28;20136;-65
2024/02/08 10:21:35;;;;;;;4.88;3.53;;;;;;;;;;10262252;28;20072;-66
2024/02/08 10:26:38;;;;;;;9.05;3.88;;;;;;;;;;10259198;28;20134;-65
2024/02/08 10:31:37;;;;;;;4.72;3.20;;;;;;;;;;10255099;28;20632;-64
2024/02/08 10:36:39;;;;;;;6.97;3.97;;;;;;;;;;10248248;28;20147;-65
2024/02/08 10:41:57;;;;;;;8.18;4.25;;;;;;;;;;10258357;28;20486;-67
2024/02/08 10:47:06;;;;;;;5.82;3.53;;;;;;;;;;10257517;28;20112;-64
2024/02/08 10:52:06;;;;;;;4.50;4.05;;;;;;;;;;10255013;28;20545;-65
2024/02/08 10:57:09;;;;;;;11.70;4.72;;;;;;;;;;10250810;28;20060;-65
2024/02/08 11:02:31;;;;;;;6.65;4.07;;;;;;;;;;10258409;28;20072;-66
2024/02/08 11:07:33;;;;;;;7.07;4.03;;;;;;;;;;10253643;28;20181;-66
2024/02/08 11:12:34;;;;;;;9.55;3.70;;;;;;;;;;10269031;28;20076;-65
2024/02/08 11:17:32;;;;;;;6.30;3.53;;;;;;;;;;10254031;28;20069;-65
2024/02/08 11:22:42;;;;;;;5.60;3.20;;;;;;;;;;10242503;28;20092;-65
2024/02/08 11:27:41;;;;;;;7.72;4.15;;;;;;;;;;10254897;28;20065;-65
2024/02/08 11:32:39;;;;;;;6.32;3.53;;;;;;;;;;10247809;28;20068;-65
2024/02/08 11:37:47;;;;;;;5.55;4.30;;;;;;;;;;10263795;28;20490;-64
2024/02/08 11:42:47;;;;;;;;;;;;;;;;;;10266290;28;20076;-65
2024/02/08 11:47:48;;;;;;;6.40;3.75;;;;;;;;;;10257615;28;19956;-66
2024/02/08 11:52:57;;;;;;;8.23;4.00;;;;;;;;;;10259960;28;20075;-66
2024/02/08 11:57:56;;;;;;;5.40;3.78;;;;;;;;;;10253781;28;20538;-63
2024/02/08 12:02:58;;;;;;;5.85;3.60;;;;;;;;;;10255721;28;20075;-65
2024/02/08 12:08:08;;;;;;;8.90;3.83;;;;;;;;;;10257283;28;20073;-64
2024/02/08 12:13:12;;;;;;;9.00;3.80;;;;;;;;;;10256365;28;20069;-66
2024/02/08 12:18:13;;;;;;;5.10;3.67;;;;;;;;;;10257968;28;20056;-65
2024/02/08 12:23:23;;;;;;;8.68;3.35;;;;;;;;;;10261520;28;20081;-65
2024/02/08 12:28:24;;;;;;;5.40;2.72;;;;;;;;;;10276294;28;20465;-65
2024/02/08 12:33:26;;;;;;;6.20;2.92;;;;;;;;;;10260928;28;20084;-66
2024/02/08 12:38:26;;;;;;;8.75;4.10;;;;;;;;;;10263171;28;20069;-65
2024/02/08 12:43:24;;;;;;;3.78;3.00;;;;;;;;;;10258383;28;20079;-65
2024/02/08 12:48:23;;;;;;;11.25;4.95;;;;;;;;;;10265016;28;20626;-65
2024/02/08 12:53:21;;;;;;;11.85;3.95;;;;;;;;;;10250557;28;20077;-65
2024/02/08 12:58:23;;;;;;;5.82;3.90;;;;;;;;;;10254130;28;20061;-65
2024/02/08 13:03:24;;;;;;;6.72;3.28;;;;;;;;;;10254182;28;20083;-65
2024/02/08 13:08:24;;;;;;;6.70;3.25;;;;;;;;;;10251960;28;20084;-65
2024/02/08 13:13:24;;;;;;;6.03;3.17;;;;;;;;;;10247017;28;20514;-64
2024/02/08 13:18:22;;;;;;;7.85;4.28;;;;;;;;;;10245452;28;20080;-65
2024/02/08 13:23:21;;;;;;;9.98;6.15;;;;;;;;;;10247866;28;20085;-65
2024/02/08 13:28:23;;;;;;;6.28;3.53;;;;;;;;;;10251209;28;20088;-65
2024/02/08 13:33:23;;;;;;;7.53;4.38;;;;;;;;;;10251945;28;20540;-65
2024/02/08 13:38:22;;;;;;;11.95;4.00;;;;;;;;;;10248571;28;20559;-65
2024/02/08 13:43:21;;;;;;;9.50;3.90;;;;;;;;;;10253808;28;20061;-64
2024/02/08 13:48:19;;;;;;;5.85;4.40;;;;;;;;;;10254429;28;20068;-64
2024/02/08 13:53:21;;;;;;;8.23;4.43;;;;;;;;;;10252041;28;20073;-64
2024/02/08 13:58:20;;;;;;;5.47;3.90;;;;;;;;;;10250595;28;20080;-65
2024/02/08 14:03:22;;;;;;;12.10;5.47;;;;;;;;;;10249189;28;20871;-64
2024/02/08 14:08:27;;;;;;;13.00;5.45;;;;;;;;;;10253828;28;20072;-65
2024/02/08 14:13:34;;;;;;;9.55;7.45;;;;;;;;;;10251437;28;20104;-64
2024/02/08 14:18:35;;;;;;;13.77;5.20;;;;;;;;;;10252629;28;20079;-65
2024/02/08 14:23:43;;;;;;;6.13;3.63;;;;;;;;;;10253196;28;20096;-64
2024/02/08 14:28:46;;;;;;;11.80;4.28;;;;;;;;;;10251955;28;20072;-65
2024/02/08 14:33:45;;;;;;;8.88;4.63;;;;;;;;;;10251193;28;20491;-65
2024/02/08 14:38:47;;;;;;;8.63;5.88;;;;;;;;;;10257368;28;20065;-65
2024/02/08 14:43:46;;;;;;;5.93;4.05;;;;;;;;;;10257585;28;20077;-65
2024/02/08 14:48:51;;;;;;;6.50;4.43;;;;;;;;;;10261037;28;20458;-65
2024/02/08 14:53:53;;;;;;;9.05;4.25;;;;;;;;;;10260474;28;20081;-65
2024/02/08 14:58:56;;;;;;;7.07;4.70;;;;;;;;;;10252643;28;20072;-65
2024/02/08 15:03:58;;;;;;;5.13;4.23;;;;;;;;;;10252161;28;20072;-64
2024/02/08 15:09:47;;;;;;;10.50;6.78;;;;;;;;;;10254970;28;20065;-64
2024/02/08 15:14:28;;;;;;;14.30;7.25;;;;;;;;;;10252163;28;20092;-65
2024/02/08 15:19:26;;;;;;;7.18;5.43;;;;;;;;;;10253780;28;20071;-64
2024/02/08 15:24:27;;;;;;;10.68;4.88;;;;;;;;;;10256108;28;20084;-63
2024/02/08 15:29:33;;;;;;;10.13;7.43;;;;;;;;;;10251561;28;20073;-65
2024/02/08 15:34:43;;;;;;;22.67;16.95;;;;;;;;;;10257009;28;20459;-64
2024/02/08 15:40:09;;;;;;;16.20;12.15;;;;;;;;;;10256586;28;20095;-65
2024/02/08 15:45:13;;;;;;;13.20;9.43;;;;;;;;;;10253896;28;20069;-64
2024/02/08 15:50:15;;;;;;;21.60;15.10;;;;;;;;;;10257224;28;20080;-64
2024/02/08 15:55:16;;;;;;;15.77;10.38;;;;;;;;;;10254414;28;20079;-65
2024/02/08 16:00:33;;;;;;;11.88;7.82;;;;;;;;;;10266742;28;20069;-64
2024/02/08 16:05:44;;;;;;;20.40;10.35;;;;;;;;;;10273098;28;20088;-64
2024/02/08 16:10:44;;;;;;;24.52;15.65;;;;;;;;;;10270292;28;20075;-65
2024/02/08 16:15:55;;;;;;;22.08;16.02;;;;;;;;;;10257504;28;20077;-64
2024/02/08 16:20:55;;;;;;;25.45;18.48;;;;;;;;;;10259109;28;20083;-65
2024/02/08 16:26:05;;;;;;;44.83;32.53;;;;;;;;;;10257673;28;20518;-64
2024/02/08 16:31:10;;;;;;;22.27;16.75;;;;;;;;;;10255963;28;20061;-64
2024/02/08 16:36:21;;;;;;;18.93;9.13;;;;;;;;;;10256660;28;20073;-65
2024/02/08 16:41:23;;;;;;;14.63;8.02;;;;;;;;;;10256361;28;20465;-66
2024/02/08 16:46:23;;;;;;;7.80;5.90;;;;;;;;;;10252494;28;20068;-66
2024/02/08 16:51:26;;;;;;;6.47;5.78;;;;;;;;;;10250404;28;20068;-66
2024/02/08 16:56:38;;;;;;;8.57;4.43;;;;;;;;;;10252823;28;20099;-65
2024/02/08 17:01:52;;;;;;;11.40;5.07;;;;;;;;;;10250969;28;20068;-65
2024/02/08 17:06:58;;;;;;;10.75;5.43;;;;;;;;;;10251158;28;20069;-64
2024/02/08 17:12:04;;;;;;;11.93;5.72;;;;;;;;;;10255638;28;20072;-65
2024/02/08 17:17:13;;;;;;;11.93;6.38;;;;;;;;;;10250229;28;20073;-68
2024/02/08 17:22:40;;;;;;;8.13;5.80;;;;;;;;;;10249320;28;20084;-64
2024/02/08 17:27:49;;;;;;;8.10;5.57;;;;;;;;;;10249147;28;20593;-66
2024/02/08 17:32:52;;;;;;;11.68;6.85;;;;;;;;;;10251092;28;20097;-65
2024/02/08 17:38:00;;;;;;;7.93;5.85;;;;;;;;;;10250951;28;20080;-65
2024/02/08 17:43:00;;;;;;;11.32;6.70;;;;;;;;;;10256268;28;20083;-65
2024/02/08 17:47:59;;;;;;;12.75;7.32;;;;;;;;;;10248395;28;20077;-64
2024/02/08 17:52:59;;;;;;;13.93;6.57;;;;;;;;;;10252228;28;20573;-65
2024/02/08 17:57:57;;;;;;;9.05;6.22;;;;;;;;;;10252057;28;20077;-65
2024/02/08 18:02:59;;;;;;;9.77;5.75;;;;;;;;;;10246872;28;20077;-65
2024/02/08 18:07:59;;;;;;;10.48;4.60;;;;;;;;;;10249797;28;20475;-65
2024/02/08 18:13:00;;;;;;;12.88;6.82;;;;;;;;;;10260750;28;20081;-65
2024/02/08 18:18:04;;;;;;;7.65;4.85;;;;;;;;;;10259976;28;20257;-64
2024/02/08 18:23:03;;;;;;;9.07;5.35;;;;;;;;;;10261710;28;20080;-64
2024/02/08 18:28:05;;;;;;;10.10;4.68;;;;;;;;;;10260760;28;20064;-65
2024/02/08 18:33:06;;;;;;;8.43;5.03;;;;;;;;;;10259802;28;20072;-65
2024/02/08 18:38:07;;;;;;;8.27;5.20;;;;;;;;;;10259269;28;20088;-64
2024/02/08 18:43:13;;;;;;;11.15;7.20;;;;;;;;;;10257809;28;20116;-64
2024/02/08 18:48:13;;;;;;;9.50;5.45;;;;;;;;;;10256720;28;20072;-64
2024/02/08 18:53:12;;;;;;;12.93;5.78;;;;;;;;;;10253080;28;20069;-64
2024/02/08 18:58:12;;;;;;;8.23;5.03;;;;;;;;;;10259705;28;20092;-64
2024/02/08 19:03:15;;;;;;;5.97;4.50;;;;;;;;;;10262638;28;20083;-65
2024/02/08 19:08:15;;;;;;;9.95;5.47;;;;;;;;;;10251853;28;20064;-62
2024/02/08 19:13:25;;;;;;;8.90;5.35;;;;;;;;;;10269235;28;20072;-64
2024/02/08 19:18:26;;;;;;;12.77;8.05;;;;;;;;;;10265928;28;20080;-64
2024/02/08 19:23:25;;;;;;;7.90;4.70;;;;;;;;;;10269890;28;20498;-65
2024/02/08 19:28:24;;;;;;;10.57;5.97;;;;;;;;;;10264919;28;20065;-64
2024/02/08 19:33:23;;;;;;;10.68;5.70;;;;;;;;;;10254368;28;20072;-65
2024/02/08 19:38:26;;;;;;;7.13;4.53;;;;;;;;;;10255012;28;20577;-66
2024/02/08 19:43:26;;;;;;;7.45;4.93;;;;;;;;;;10257727;28;20598;-65
2024/02/08 19:48:29;;;;;;;7.57;4.90;;;;;;;;;;10254879;28;20076;-64
2024/02/08 19:53:29;;;;;;;10.32;4.78;;;;;;;;;;10256860;28;20110;-64
2024/02/08 19:58:28;;;;;;;9.05;4.25;;;;;;;;;;10258331;28;20489;-64
2024/02/08 20:03:27;;;;;;;8.27;4.53;;;;;;;;;;10253938;28;20465;-65
2024/02/08 20:08:29;;;;;;;8.93;5.18;;;;;;;;;;10251801;28;20467;-65
2024/02/08 20:13:29;;;;;;;8.52;4.70;;;;;;;;;;10255699;28;20072;-65
2024/02/08 20:18:29;;;;;;;10.30;4.88;;;;;;;;;;10247368;28;20603;-65
2024/02/08 20:23:32;;;;;;;9.43;4.43;;;;;;;;;;10253683;28;20675;-64
2024/02/08 20:28:34;;;;;;;7.65;4.00;;;;;;;;;;10262775;28;20079;-64
2024/02/08 20:33:32;;;;;;;6.50;4.40;;;;;;;;;;10255274;28;20075;-65
2024/02/08 20:38:31;;;;;;;12.15;4.72;;;;;;;;;;10255387;28;20482;-65
2024/02/08 20:43:30;;;;;;;9.07;5.65;;;;;;;;;;10255471;28;20061;-65
2024/02/08 20:48:33;;;;;;;11.15;4.25;;;;;;;;;;10253707;28;20514;-65
2024/02/08 20:53:31;;;;;;;4.70;3.50;;;;;;;;;;10253584;28;20076;-64
2024/02/08 20:58:30;;;;;;;5.28;3.65;;;;;;;;;;10253254;28;20470;-65
2024/02/08 21:03:30;;;;;;;10.13;4.50;;;;;;;;;;10254967;28;20072;-64
2024/02/08 21:08:29;;;;;;;5.85;3.72;;;;;;;;;;10254688;28;20487;-65
2024/02/08 21:13:29;;;;;;;7.80;4.15;;;;;;;;;;10252662;28;20076;-65
2024/02/08 21:18:32;;;;;;;7.70;4.47;;;;;;;;;;10255531;28;20076;-65
2024/02/08 21:23:33;;;;;;;6.32;3.88;;;;;;;;;;10255701;28;20077;-64
2024/02/08 21:28:32;;;;;;;9.30;4.40;;;;;;;;;;10252989;28;20080;-64
2024/02/08 21:33:32;;;;;;;6.45;3.47;;;;;;;;;;10254239;28;20065;-64
2024/02/08 21:38:33;;;;;;;6.03;3.85;;;;;;;;;;10250131;28;20084;-64
2024/02/08 21:43:34;;;;;;;7.82;3.83;;;;;;;;;;10252689;28;20069;-64
2024/02/08 21:48:37;;;;;;;11.88;4.53;;;;;;;;;;10261769;28;20096;-65
2024/02/08 21:53:35;;;;;;;6.25;4.18;;;;;;;;;;10261312;28;20080;-65
2024/02/08 21:58:34;;;;;;;9.45;4.40;;;;;;;;;;10260137;28;20498;-64
2024/02/08 22:03:33;;;;;;;7.15;4.20;;;;;;;;;;10258487;28;20069;-64
2024/02/08 22:08:32;;;;;;;9.18;3.80;;;;;;;;;;10258905;28;20765;-63
2024/02/08 22:13:30;;;;;;;7.75;4.78;;;;;;;;;;10254150;28;20061;-63
2024/02/08 22:18:29;;;;;;;5.78;3.78;;;;;;;;;;10255847;28;20095;-64
2024/02/08 22:23:30;;;;;;;5.78;3.50;;;;;;;;;;10255104;28;20084;-64
2024/02/08 22:28:29;;;;;;;13.32;5.10;;;;;;;;;;10256077;28;20073;-63
2024/02/08 22:33:27;;;;;;;6.45;4.15;;;;;;;;;;10257785;28;20060;-64
2024/02/08 22:38:25;;;;;;;5.75;4.10;;;;;;;;;;10257202;28;20096;-64
2024/02/08 22:43:25;;;;;;;8.90;4.47;;;;;;;;;;10256699;28;20494;-64
2024/02/08 22:48:23;;;;;;;8.13;3.85;;;;;;;;;;10258643;28;20525;-64
2024/02/08 22:53:22;;;;;;;5.47;4.28;;;;;;;;;;10251835;28;20064;-66
2024/02/08 22:58:20;;;;;;;8.00;3.80;;;;;;;;;;10256161;28;20073;-65
2024/02/08 23:03:24;;;;;;;7.47;3.67;;;;;;;;;;10256463;28;20076;-65
2024/02/08 23:08:22;;;;;;;8.35;4.57;;;;;;;;;;10255289;28;20072;-65
2024/02/08 23:13:21;;;;;;;12.15;4.72;;;;;;;;;;10254060;28;20069;-65
2024/02/08 23:18:21;;;;;;;8.40;4.13;;;;;;;;;;10251747;28;20084;-66
2024/02/08 23:23:22;;;;;;;10.88;4.40;;;;;;;;;;10256359;28;20187;-65
2024/02/08 23:28:20;;;;;;;4.70;3.53;;;;;;;;;;10256037;28;20065;-65
2024/02/08 23:33:22;;;;;;;5.18;3.55;;;;;;;;;;10255214;28;20582;-65
2024/02/08 23:38:23;;;;;;;5.90;4.85;;;;;;;;;;10254973;28;20081;-65
2024/02/08 23:43:21;;;;;;;9.45;4.22;;;;;;;;;;10256973;28;20080;-67
2024/02/08 23:48:21;;;;;;;7.82;3.90;;;;;;;;;;10258510;28;20084;-64
2024/02/08 23:53:20;;;;;;;6.78;4.72;;;;;;;;;;10256007;28;20076;-65
2024/02/08 23:58:19;;;;;;;4.85;3.63;;;;;;;;;;10254939;28;20069;-63
